sensor_id;sensor_type;location;lat;lon;timestamp;P1;durP1;ratioP1;P2;durP2;ratioP2
5285;SDS011;2665;53.112;7.358;2023-07-20T00:02:20;2.00;;;1.10;;
5285;SDS011;2665;53.112;7.358;2023-07-20T00:04:46;2.43;;;1.40;;
5285;SDS011;2665;53.112;7.358;2023-07-20T00:07:11;4.27;;;1.70;;
5285;SDS011;2665;53.112;7.358;2023-07-20T00:09:37;2.43;;;1.30;;
5285;SDS011;2665;53.112;7.358;2023-07-20T00:12:02;2.90;;;1.03;;
5285;SDS011;2665;53.112;7.358;2023-07-20T00:14:28;2.40;;;1.20;;
5285;SDS011;2665;53.112;7.358;2023-07-20T00:16:54;2.40;;;1.37;;
5285;SDS011;2665;53.112;7.358;2023-07-20T00:19:21;3.43;;;1.40;;
5285;SDS011;2665;53.112;7.358;2023-07-20T00:21:50;2.17;;;1.30;;
5285;SDS011;2665;53.112;7.358;2023-07-20T00:24:17;2.37;;;1.33;;
5285;SDS011;2665;53.112;7.358;2023-07-20T00:26:43;2.67;;;1.67;;
5285;SDS011;2665;53.112;7.358;2023-07-20T00:29:08;2.50;;;1.83;;
5285;SDS011;2665;53.112;7.358;2023-07-20T00:31:34;2.27;;;1.43;;
5285;SDS011;2665;53.112;7.358;2023-07-20T00:34:02;2.17;;;1.20;;
5285;SDS011;2665;53.112;7.358;2023-07-20T00:36:28;2.77;;;1.60;;
5285;SDS011;2665;53.112;7.358;2023-07-20T00:38:53;2.20;;;1.17;;
5285;SDS011;2665;53.112;7.358;2023-07-20T00:41:19;3.00;;;1.63;;
5285;SDS011;2665;53.112;7.358;2023-07-20T00:43:45;2.20;;;1.20;;
5285;SDS011;2665;53.112;7.358;2023-07-20T00:46:10;3.00;;;1.47;;
5285;SDS011;2665;53.112;7.358;2023-07-20T00:48:37;2.70;;;1.40;;
5285;SDS011;2665;53.112;7.358;2023-07-20T00:51:03;2.97;;;1.90;;
5285;SDS011;2665;53.112;7.358;2023-07-20T00:53:29;3.63;;;1.40;;
5285;SDS011;2665;53.112;7.358;2023-07-20T00:55:55;2.83;;;1.50;;
5285;SDS011;2665;53.112;7.358;2023-07-20T00:58:21;3.70;;;1.30;;
5285;SDS011;2665;53.112;7.358;2023-07-20T01:00:48;3.33;;;1.70;;
5285;SDS011;2665;53.112;7.358;2023-07-20T01:03:13;3.80;;;1.60;;
5285;SDS011;2665;53.112;7.358;2023-07-20T01:05:48;2.93;;;2.10;;
5285;SDS011;2665;53.112;7.358;2023-07-20T01:08:33;2.87;;;1.57;;
5285;SDS011;2665;53.112;7.358;2023-07-20T01:14:01;2.63;;;1.87;;
5285;SDS011;2665;53.112;7.358;2023-07-20T01:16:27;5.13;;;1.50;;
5285;SDS011;2665;53.112;7.358;2023-07-20T01:18:53;2.60;;;1.60;;
5285;SDS011;2665;53.112;7.358;2023-07-20T01:21:24;4.10;;;1.47;;
5285;SDS011;2665;53.112;7.358;2023-07-20T01:32:32;2.33;;;1.50;;
5285;SDS011;2665;53.112;7.358;2023-07-20T01:34:59;2.40;;;1.50;;
5285;SDS011;2665;53.112;7.358;2023-07-20T01:37:27;2.97;;;1.73;;
5285;SDS011;2665;53.112;7.358;2023-07-20T01:39:55;3.30;;;1.63;;
5285;SDS011;2665;53.112;7.358;2023-07-20T01:42:21;5.90;;;1.33;;
5285;SDS011;2665;53.112;7.358;2023-07-20T01:44:50;2.63;;;1.50;;
5285;SDS011;2665;53.112;7.358;2023-07-20T01:47:17;2.40;;;1.50;;
5285;SDS011;2665;53.112;7.358;2023-07-20T01:49:43;3.00;;;1.40;;
5285;SDS011;2665;53.112;7.358;2023-07-20T01:52:08;2.70;;;1.43;;
5285;SDS011;2665;53.112;7.358;2023-07-20T01:54:34;2.30;;;1.63;;
5285;SDS011;2665;53.112;7.358;2023-07-20T01:56:59;2.40;;;1.40;;
5285;SDS011;2665;53.112;7.358;2023-07-20T01:59:25;2.40;;;1.60;;
5285;SDS011;2665;53.112;7.358;2023-07-20T02:01:50;2.43;;;1.27;;
5285;SDS011;2665;53.112;7.358;2023-07-20T02:04:17;2.30;;;1.43;;
5285;SDS011;2665;53.112;7.358;2023-07-20T02:06:42;2.67;;;1.50;;
5285;SDS011;2665;53.112;7.358;2023-07-20T02:09:08;2.83;;;1.50;;
5285;SDS011;2665;53.112;7.358;2023-07-20T02:11:33;2.50;;;1.63;;
5285;SDS011;2665;53.112;7.358;2023-07-20T02:13:59;2.43;;;1.57;;
5285;SDS011;2665;53.112;7.358;2023-07-20T02:16:25;3.83;;;1.60;;
5285;SDS011;2665;53.112;7.358;2023-07-20T02:18:51;3.00;;;1.60;;
5285;SDS011;2665;53.112;7.358;2023-07-20T02:21:18;2.33;;;1.57;;
5285;SDS011;2665;53.112;7.358;2023-07-20T02:23:44;2.37;;;1.30;;
5285;SDS011;2665;53.112;7.358;2023-07-20T02:26:10;3.60;;;1.80;;
5285;SDS011;2665;53.112;7.358;2023-07-20T02:28:36;2.40;;;1.40;;
5285;SDS011;2665;53.112;7.358;2023-07-20T02:31:02;2.83;;;1.60;;
5285;SDS011;2665;53.112;7.358;2023-07-20T02:33:28;2.73;;;1.57;;
5285;SDS011;2665;53.112;7.358;2023-07-20T02:35:54;2.77;;;1.80;;
5285;SDS011;2665;53.112;7.358;2023-07-20T02:38:20;2.70;;;1.60;;
5285;SDS011;2665;53.112;7.358;2023-07-20T02:40:46;3.17;;;1.60;;
5285;SDS011;2665;53.112;7.358;2023-07-20T02:43:12;2.67;;;1.73;;
5285;SDS011;2665;53.112;7.358;2023-07-20T02:45:41;4.03;;;1.60;;
5285;SDS011;2665;53.112;7.358;2023-07-20T02:48:07;2.97;;;1.97;;
5285;SDS011;2665;53.112;7.358;2023-07-20T02:50:33;2.70;;;1.67;;
5285;SDS011;2665;53.112;7.358;2023-07-20T02:53:00;3.50;;;2.30;;
5285;SDS011;2665;53.112;7.358;2023-07-20T02:55:26;3.87;;;1.77;;
5285;SDS011;2665;53.112;7.358;2023-07-20T02:57:52;2.50;;;1.50;;
5285;SDS011;2665;53.112;7.358;2023-07-20T03:00:18;2.20;;;1.50;;
5285;SDS011;2665;53.112;7.358;2023-07-20T03:02:45;3.27;;;2.20;;
5285;SDS011;2665;53.112;7.358;2023-07-20T03:05:17;2.70;;;2.00;;
5285;SDS011;2665;53.112;7.358;2023-07-20T03:07:43;2.80;;;1.70;;
5285;SDS011;2665;53.112;7.358;2023-07-20T03:10:10;2.80;;;2.00;;
5285;SDS011;2665;53.112;7.358;2023-07-20T03:12:36;3.20;;;2.13;;
5285;SDS011;2665;53.112;7.358;2023-07-20T03:15:02;2.60;;;1.67;;
5285;SDS011;2665;53.112;7.358;2023-07-20T03:17:29;3.10;;;2.00;;
5285;SDS011;2665;53.112;7.358;2023-07-20T03:19:55;4.50;;;2.23;;
5285;SDS011;2665;53.112;7.358;2023-07-20T03:22:21;5.53;;;2.00;;
5285;SDS011;2665;53.112;7.358;2023-07-20T03:24:47;4.30;;;1.80;;
5285;SDS011;2665;53.112;7.358;2023-07-20T03:27:13;3.87;;;2.40;;
5285;SDS011;2665;53.112;7.358;2023-07-20T03:29:39;3.83;;;2.10;;
5285;SDS011;2665;53.112;7.358;2023-07-20T03:32:05;3.90;;;2.27;;
5285;SDS011;2665;53.112;7.358;2023-07-20T03:34:31;5.43;;;2.00;;
5285;SDS011;2665;53.112;7.358;2023-07-20T03:36:57;3.77;;;2.30;;
5285;SDS011;2665;53.112;7.358;2023-07-20T03:39:24;3.60;;;2.27;;
5285;SDS011;2665;53.112;7.358;2023-07-20T03:41:50;2.87;;;2.10;;
5285;SDS011;2665;53.112;7.358;2023-07-20T03:44:16;4.30;;;2.27;;
5285;SDS011;2665;53.112;7.358;2023-07-20T03:46:42;5.40;;;2.30;;
5285;SDS011;2665;53.112;7.358;2023-07-20T03:49:08;3.37;;;2.20;;
5285;SDS011;2665;53.112;7.358;2023-07-20T03:51:35;2.97;;;1.90;;
5285;SDS011;2665;53.112;7.358;2023-07-20T03:54:01;3.40;;;2.60;;
5285;SDS011;2665;53.112;7.358;2023-07-20T03:56:27;9.40;;;2.97;;
5285;SDS011;2665;53.112;7.358;2023-07-20T03:58:53;3.67;;;2.27;;
5285;SDS011;2665;53.112;7.358;2023-07-20T04:01:19;3.60;;;2.30;;
5285;SDS011;2665;53.112;7.358;2023-07-20T04:03:45;4.03;;;2.63;;
5285;SDS011;2665;53.112;7.358;2023-07-20T04:06:11;5.03;;;2.67;;
5285;SDS011;2665;53.112;7.358;2023-07-20T04:08:39;3.07;;;2.20;;
5285;SDS011;2665;53.112;7.358;2023-07-20T04:11:05;5.03;;;2.50;;
5285;SDS011;2665;53.112;7.358;2023-07-20T04:13:31;3.57;;;2.23;;
5285;SDS011;2665;53.112;7.358;2023-07-20T04:16:00;4.40;;;2.70;;
5285;SDS011;2665;53.112;7.358;2023-07-20T04:18:27;2.80;;;2.33;;
5285;SDS011;2665;53.112;7.358;2023-07-20T04:20:53;3.73;;;2.70;;
5285;SDS011;2665;53.112;7.358;2023-07-20T04:23:19;2.93;;;2.20;;
5285;SDS011;2665;53.112;7.358;2023-07-20T04:25:45;6.70;;;2.20;;
5285;SDS011;2665;53.112;7.358;2023-07-20T04:28:12;6.50;;;3.20;;
5285;SDS011;2665;53.112;7.358;2023-07-20T04:30:38;4.10;;;2.60;;
5285;SDS011;2665;53.112;7.358;2023-07-20T04:33:07;3.13;;;2.13;;
5285;SDS011;2665;53.112;7.358;2023-07-20T04:38:12;4.00;;;2.23;;
5285;SDS011;2665;53.112;7.358;2023-07-20T04:40:38;2.77;;;2.03;;
5285;SDS011;2665;53.112;7.358;2023-07-20T04:43:04;3.03;;;2.13;;
5285;SDS011;2665;53.112;7.358;2023-07-20T04:45:30;3.83;;;2.37;;
5285;SDS011;2665;53.112;7.358;2023-07-20T04:47:56;3.63;;;2.33;;
5285;SDS011;2665;53.112;7.358;2023-07-20T04:50:22;3.30;;;2.20;;
5285;SDS011;2665;53.112;7.358;2023-07-20T04:52:50;4.33;;;2.43;;
5285;SDS011;2665;53.112;7.358;2023-07-20T04:55:16;4.30;;;2.33;;
5285;SDS011;2665;53.112;7.358;2023-07-20T04:57:43;4.90;;;2.43;;
5285;SDS011;2665;53.112;7.358;2023-07-20T05:00:10;2.83;;;1.90;;
5285;SDS011;2665;53.112;7.358;2023-07-20T05:02:38;5.70;;;2.33;;
5285;SDS011;2665;53.112;7.358;2023-07-20T05:05:04;3.17;;;1.97;;
5285;SDS011;2665;53.112;7.358;2023-07-20T05:07:31;3.03;;;2.00;;
5285;SDS011;2665;53.112;7.358;2023-07-20T05:09:57;3.07;;;1.50;;
5285;SDS011;2665;53.112;7.358;2023-07-20T05:12:23;2.87;;;1.73;;
5285;SDS011;2665;53.112;7.358;2023-07-20T05:14:49;5.17;;;1.77;;
5285;SDS011;2665;53.112;7.358;2023-07-20T05:17:16;3.33;;;2.23;;
5285;SDS011;2665;53.112;7.358;2023-07-20T05:19:42;5.17;;;1.73;;
5285;SDS011;2665;53.112;7.358;2023-07-20T05:22:08;4.60;;;1.70;;
5285;SDS011;2665;53.112;7.358;2023-07-20T05:24:34;2.93;;;1.70;;
5285;SDS011;2665;53.112;7.358;2023-07-20T05:27:00;3.83;;;1.80;;
5285;SDS011;2665;53.112;7.358;2023-07-20T05:29:26;4.40;;;2.03;;
5285;SDS011;2665;53.112;7.358;2023-07-20T05:31:52;5.30;;;1.50;;
5285;SDS011;2665;53.112;7.358;2023-07-20T05:34:18;2.60;;;1.67;;
5285;SDS011;2665;53.112;7.358;2023-07-20T05:36:44;16.30;;;2.23;;
5285;SDS011;2665;53.112;7.358;2023-07-20T05:39:10;2.37;;;1.60;;
5285;SDS011;2665;53.112;7.358;2023-07-20T05:41:36;3.83;;;1.37;;
5285;SDS011;2665;53.112;7.358;2023-07-20T05:44:02;3.23;;;1.93;;
5285;SDS011;2665;53.112;7.358;2023-07-20T05:46:28;4.03;;;1.67;;
5285;SDS011;2665;53.112;7.358;2023-07-20T05:48:54;2.77;;;1.40;;
5285;SDS011;2665;53.112;7.358;2023-07-20T05:51:20;2.27;;;1.50;;
5285;SDS011;2665;53.112;7.358;2023-07-20T05:53:46;2.63;;;1.40;;
5285;SDS011;2665;53.112;7.358;2023-07-20T05:56:13;3.10;;;1.80;;
5285;SDS011;2665;53.112;7.358;2023-07-20T05:58:39;6.57;;;1.50;;
5285;SDS011;2665;53.112;7.358;2023-07-20T06:01:05;4.30;;;1.97;;
5285;SDS011;2665;53.112;7.358;2023-07-20T06:03:31;3.83;;;1.23;;
5285;SDS011;2665;53.112;7.358;2023-07-20T06:06:02;2.03;;;0.97;;
5285;SDS011;2665;53.112;7.358;2023-07-20T06:08:34;2.77;;;1.10;;
5285;SDS011;2665;53.112;7.358;2023-07-20T06:11:00;1.90;;;0.90;;
5285;SDS011;2665;53.112;7.358;2023-07-20T06:13:26;7.63;;;2.43;;
5285;SDS011;2665;53.112;7.358;2023-07-20T06:15:52;1.80;;;0.80;;
5285;SDS011;2665;53.112;7.358;2023-07-20T06:18:18;1.80;;;0.80;;
5285;SDS011;2665;53.112;7.358;2023-07-20T06:20:52;2.00;;;0.80;;
5285;SDS011;2665;53.112;7.358;2023-07-20T06:23:18;2.23;;;1.10;;
5285;SDS011;2665;53.112;7.358;2023-07-20T06:25:45;1.93;;;0.80;;
5285;SDS011;2665;53.112;7.358;2023-07-20T06:28:11;1.70;;;0.70;;
5285;SDS011;2665;53.112;7.358;2023-07-20T06:30:37;2.07;;;1.07;;
5285;SDS011;2665;53.112;7.358;2023-07-20T06:33:03;1.80;;;0.80;;
5285;SDS011;2665;53.112;7.358;2023-07-20T06:35:29;3.90;;;0.97;;
5285;SDS011;2665;53.112;7.358;2023-07-20T06:37:55;1.80;;;0.80;;
5285;SDS011;2665;53.112;7.358;2023-07-20T06:40:22;2.00;;;0.70;;
5285;SDS011;2665;53.112;7.358;2023-07-20T06:42:48;2.03;;;0.80;;
5285;SDS011;2665;53.112;7.358;2023-07-20T06:45:14;1.97;;;0.90;;
5285;SDS011;2665;53.112;7.358;2023-07-20T06:47:41;2.17;;;0.87;;
5285;SDS011;2665;53.112;7.358;2023-07-20T06:50:07;2.10;;;0.93;;
5285;SDS011;2665;53.112;7.358;2023-07-20T06:52:34;2.27;;;0.90;;
5285;SDS011;2665;53.112;7.358;2023-07-20T06:55:00;2.20;;;1.00;;
5285;SDS011;2665;53.112;7.358;2023-07-20T06:57:26;2.93;;;1.10;;
5285;SDS011;2665;53.112;7.358;2023-07-20T06:59:52;4.63;;;0.80;;
5285;SDS011;2665;53.112;7.358;2023-07-20T07:02:18;2.90;;;0.73;;
5285;SDS011;2665;53.112;7.358;2023-07-20T07:04:44;1.93;;;0.73;;
5285;SDS011;2665;53.112;7.358;2023-07-20T07:07:13;2.63;;;0.60;;
5285;SDS011;2665;53.112;7.358;2023-07-20T07:09:39;4.47;;;1.10;;
5285;SDS011;2665;53.112;7.358;2023-07-20T07:12:05;2.53;;;0.80;;
5285;SDS011;2665;53.112;7.358;2023-07-20T07:14:31;2.40;;;0.80;;
5285;SDS011;2665;53.112;7.358;2023-07-20T07:16:57;2.83;;;0.83;;
5285;SDS011;2665;53.112;7.358;2023-07-20T07:19:24;4.03;;;0.80;;
5285;SDS011;2665;53.112;7.358;2023-07-20T07:21:50;2.17;;;0.73;;
5285;SDS011;2665;53.112;7.358;2023-07-20T07:24:16;3.40;;;0.80;;
5285;SDS011;2665;53.112;7.358;2023-07-20T07:26:42;2.97;;;0.90;;
5285;SDS011;2665;53.112;7.358;2023-07-20T07:29:09;2.30;;;1.03;;
5285;SDS011;2665;53.112;7.358;2023-07-20T07:31:35;3.67;;;1.10;;
5285;SDS011;2665;53.112;7.358;2023-07-20T07:34:02;2.20;;;0.90;;
5285;SDS011;2665;53.112;7.358;2023-07-20T07:36:28;1.93;;;0.80;;
5285;SDS011;2665;53.112;7.358;2023-07-20T07:38:53;2.20;;;1.03;;
5285;SDS011;2665;53.112;7.358;2023-07-20T07:41:19;4.20;;;1.00;;
5285;SDS011;2665;53.112;7.358;2023-07-20T07:43:45;7.27;;;1.27;;
5285;SDS011;2665;53.112;7.358;2023-07-20T07:46:11;5.90;;;0.90;;
5285;SDS011;2665;53.112;7.358;2023-07-20T07:48:36;2.80;;;1.10;;
5285;SDS011;2665;53.112;7.358;2023-07-20T07:51:02;3.30;;;1.20;;
5285;SDS011;2665;53.112;7.358;2023-07-20T07:53:28;2.07;;;0.80;;
5285;SDS011;2665;53.112;7.358;2023-07-20T07:55:53;8.63;;;1.10;;
5285;SDS011;2665;53.112;7.358;2023-07-20T07:58:19;4.10;;;1.20;;
5285;SDS011;2665;53.112;7.358;2023-07-20T08:00:45;3.40;;;1.10;;
5285;SDS011;2665;53.112;7.358;2023-07-20T08:03:13;5.70;;;0.83;;
5285;SDS011;2665;53.112;7.358;2023-07-20T08:05:38;2.00;;;0.90;;
5285;SDS011;2665;53.112;7.358;2023-07-20T08:08:04;1.93;;;0.90;;
5285;SDS011;2665;53.112;7.358;2023-07-20T08:10:30;2.27;;;1.03;;
5285;SDS011;2665;53.112;7.358;2023-07-20T08:12:56;2.10;;;1.10;;
5285;SDS011;2665;53.112;7.358;2023-07-20T08:15:22;2.37;;;1.00;;
5285;SDS011;2665;53.112;7.358;2023-07-20T08:17:48;3.00;;;1.37;;
5285;SDS011;2665;53.112;7.358;2023-07-20T08:20:16;2.90;;;0.90;;
5285;SDS011;2665;53.112;7.358;2023-07-20T08:22:43;14.50;;;2.80;;
5285;SDS011;2665;53.112;7.358;2023-07-20T08:25:09;3.30;;;1.03;;
5285;SDS011;2665;53.112;7.358;2023-07-20T08:27:35;6.20;;;1.47;;
5285;SDS011;2665;53.112;7.358;2023-07-20T08:30:01;2.80;;;1.13;;
5285;SDS011;2665;53.112;7.358;2023-07-20T08:32:27;4.63;;;1.30;;
5285;SDS011;2665;53.112;7.358;2023-07-20T08:34:53;3.70;;;0.90;;
5285;SDS011;2665;53.112;7.358;2023-07-20T08:37:18;2.33;;;1.13;;
5285;SDS011;2665;53.112;7.358;2023-07-20T08:39:44;3.67;;;1.00;;
5285;SDS011;2665;53.112;7.358;2023-07-20T08:42:10;2.23;;;0.97;;
5285;SDS011;2665;53.112;7.358;2023-07-20T08:44:38;2.00;;;0.80;;
5285;SDS011;2665;53.112;7.358;2023-07-20T08:47:06;3.20;;;1.00;;
5285;SDS011;2665;53.112;7.358;2023-07-20T08:49:32;2.90;;;0.90;;
5285;SDS011;2665;53.112;7.358;2023-07-20T08:51:59;3.83;;;1.30;;
5285;SDS011;2665;53.112;7.358;2023-07-20T08:54:27;2.97;;;0.70;;
5285;SDS011;2665;53.112;7.358;2023-07-20T08:56:56;2.83;;;1.20;;
5285;SDS011;2665;53.112;7.358;2023-07-20T08:59:23;3.53;;;1.40;;
5285;SDS011;2665;53.112;7.358;2023-07-20T09:01:49;3.10;;;1.53;;
5285;SDS011;2665;53.112;7.358;2023-07-20T09:04:17;2.50;;;1.00;;
5285;SDS011;2665;53.112;7.358;2023-07-20T09:06:43;3.77;;;1.50;;
5285;SDS011;2665;53.112;7.358;2023-07-20T09:09:09;6.13;;;1.30;;
5285;SDS011;2665;53.112;7.358;2023-07-20T09:11:34;4.33;;;1.37;;
5285;SDS011;2665;53.112;7.358;2023-07-20T09:14:07;3.87;;;1.20;;
5285;SDS011;2665;53.112;7.358;2023-07-20T09:16:53;4.20;;;1.00;;
5285;SDS011;2665;53.112;7.358;2023-07-20T09:19:19;5.20;;;1.33;;
5285;SDS011;2665;53.112;7.358;2023-07-20T09:21:49;3.37;;;1.10;;
5285;SDS011;2665;53.112;7.358;2023-07-20T09:24:19;2.57;;;0.90;;
5285;SDS011;2665;53.112;7.358;2023-07-20T09:26:46;2.87;;;0.90;;
5285;SDS011;2665;53.112;7.358;2023-07-20T09:29:19;5.27;;;0.87;;
5285;SDS011;2665;53.112;7.358;2023-07-20T09:32:03;7.00;;;0.90;;
5285;SDS011;2665;53.112;7.358;2023-07-20T09:34:29;3.23;;;1.30;;
5285;SDS011;2665;53.112;7.358;2023-07-20T09:36:57;4.93;;;1.40;;
5285;SDS011;2665;53.112;7.358;2023-07-20T09:39:25;6.97;;;1.30;;
5285;SDS011;2665;53.112;7.358;2023-07-20T09:41:51;2.47;;;0.93;;
5285;SDS011;2665;53.112;7.358;2023-07-20T09:44:17;3.90;;;1.20;;
5285;SDS011;2665;53.112;7.358;2023-07-20T09:46:44;5.30;;;1.30;;
5285;SDS011;2665;53.112;7.358;2023-07-20T09:49:13;6.47;;;1.10;;
5285;SDS011;2665;53.112;7.358;2023-07-20T09:51:39;6.40;;;1.10;;
5285;SDS011;2665;53.112;7.358;2023-07-20T09:54:09;6.10;;;0.70;;
5285;SDS011;2665;53.112;7.358;2023-07-20T09:56:36;4.83;;;1.40;;
5285;SDS011;2665;53.112;7.358;2023-07-20T09:59:04;3.27;;;0.73;;
5285;SDS011;2665;53.112;7.358;2023-07-20T10:01:29;3.67;;;0.70;;
5285;SDS011;2665;53.112;7.358;2023-07-20T10:03:58;2.60;;;0.70;;
5285;SDS011;2665;53.112;7.358;2023-07-20T10:06:26;2.90;;;0.93;;
5285;SDS011;2665;53.112;7.358;2023-07-20T10:08:56;2.70;;;0.90;;
5285;SDS011;2665;53.112;7.358;2023-07-20T10:11:32;4.10;;;0.90;;
5285;SDS011;2665;53.112;7.358;2023-07-20T10:14:02;2.40;;;1.03;;
5285;SDS011;2665;53.112;7.358;2023-07-20T10:16:38;1.80;;;0.70;;
5285;SDS011;2665;53.112;7.358;2023-07-20T10:22:03;2.83;;;0.70;;
5285;SDS011;2665;53.112;7.358;2023-07-20T10:24:35;1.90;;;0.67;;
5285;SDS011;2665;53.112;7.358;2023-07-20T10:27:02;2.37;;;0.93;;
5285;SDS011;2665;53.112;7.358;2023-07-20T10:29:29;1.83;;;0.60;;
5285;SDS011;2665;53.112;7.358;2023-07-20T10:31:55;3.00;;;0.83;;
5285;SDS011;2665;53.112;7.358;2023-07-20T10:34:22;2.10;;;0.80;;
5285;SDS011;2665;53.112;7.358;2023-07-20T10:36:47;2.03;;;1.00;;
5285;SDS011;2665;53.112;7.358;2023-07-20T10:39:25;2.67;;;1.10;;
5285;SDS011;2665;53.112;7.358;2023-07-20T10:42:03;1.87;;;1.00;;
5285;SDS011;2665;53.112;7.358;2023-07-20T10:44:32;3.23;;;0.73;;
5285;SDS011;2665;53.112;7.358;2023-07-20T10:46:59;2.83;;;0.77;;
5285;SDS011;2665;53.112;7.358;2023-07-20T10:49:33;2.60;;;0.90;;
5285;SDS011;2665;53.112;7.358;2023-07-20T10:52:00;2.20;;;0.80;;
5285;SDS011;2665;53.112;7.358;2023-07-20T10:57:20;7.40;;;1.47;;
5285;SDS011;2665;53.112;7.358;2023-07-20T11:00:13;1.97;;;0.67;;
5285;SDS011;2665;53.112;7.358;2023-07-20T11:02:46;3.40;;;0.93;;
5285;SDS011;2665;53.112;7.358;2023-07-20T11:07:57;2.20;;;0.90;;
5285;SDS011;2665;53.112;7.358;2023-07-20T11:10:23;3.73;;;0.83;;
5285;SDS011;2665;53.112;7.358;2023-07-20T11:13:15;1.80;;;0.70;;
5285;SDS011;2665;53.112;7.358;2023-07-20T11:15:45;2.70;;;0.70;;
5285;SDS011;2665;53.112;7.358;2023-07-20T11:18:28;1.93;;;0.73;;
5285;SDS011;2665;53.112;7.358;2023-07-20T11:20:54;3.83;;;0.83;;
5285;SDS011;2665;53.112;7.358;2023-07-20T11:23:20;4.47;;;0.80;;
5285;SDS011;2665;53.112;7.358;2023-07-20T11:25:46;3.20;;;0.83;;
5285;SDS011;2665;53.112;7.358;2023-07-20T11:28:12;1.93;;;0.70;;
5285;SDS011;2665;53.112;7.358;2023-07-20T11:30:37;2.17;;;0.70;;
5285;SDS011;2665;53.112;7.358;2023-07-20T11:33:04;3.40;;;0.70;;
5285;SDS011;2665;53.112;7.358;2023-07-20T11:35:30;1.97;;;0.50;;
5285;SDS011;2665;53.112;7.358;2023-07-20T11:37:57;2.67;;;0.70;;
5285;SDS011;2665;53.112;7.358;2023-07-20T11:40:23;3.30;;;1.53;;
5285;SDS011;2665;53.112;7.358;2023-07-20T11:42:49;3.83;;;0.90;;
5285;SDS011;2665;53.112;7.358;2023-07-20T11:45:16;2.93;;;0.63;;
5285;SDS011;2665;53.112;7.358;2023-07-20T11:47:43;4.37;;;0.60;;
5285;SDS011;2665;53.112;7.358;2023-07-20T11:50:09;1.80;;;0.70;;
5285;SDS011;2665;53.112;7.358;2023-07-20T11:52:35;2.63;;;0.90;;
5285;SDS011;2665;53.112;7.358;2023-07-20T11:55:02;3.57;;;0.90;;
5285;SDS011;2665;53.112;7.358;2023-07-20T11:57:28;2.30;;;0.80;;
5285;SDS011;2665;53.112;7.358;2023-07-20T11:59:54;2.10;;;0.87;;
5285;SDS011;2665;53.112;7.358;2023-07-20T12:02:29;6.50;;;0.73;;
5285;SDS011;2665;53.112;7.358;2023-07-20T12:04:55;2.10;;;0.70;;
5285;SDS011;2665;53.112;7.358;2023-07-20T12:07:21;4.07;;;1.10;;
5285;SDS011;2665;53.112;7.358;2023-07-20T12:12:38;2.63;;;0.60;;
5285;SDS011;2665;53.112;7.358;2023-07-20T12:17:49;2.70;;;0.80;;
5285;SDS011;2665;53.112;7.358;2023-07-20T12:22:51;2.20;;;0.83;;
5285;SDS011;2665;53.112;7.358;2023-07-20T12:25:17;1.70;;;0.80;;
5285;SDS011;2665;53.112;7.358;2023-07-20T12:27:45;2.93;;;0.70;;
5285;SDS011;2665;53.112;7.358;2023-07-20T12:30:12;1.57;;;0.67;;
5285;SDS011;2665;53.112;7.358;2023-07-20T12:32:41;2.70;;;0.70;;
5285;SDS011;2665;53.112;7.358;2023-07-20T12:35:07;2.53;;;0.80;;
5285;SDS011;2665;53.112;7.358;2023-07-20T12:37:33;2.27;;;0.60;;
5285;SDS011;2665;53.112;7.358;2023-07-20T12:39:58;1.60;;;0.93;;
5285;SDS011;2665;53.112;7.358;2023-07-20T12:42:24;1.50;;;0.60;;
5285;SDS011;2665;53.112;7.358;2023-07-20T12:44:50;1.50;;;0.60;;
5285;SDS011;2665;53.112;7.358;2023-07-20T12:47:16;1.70;;;0.60;;
5285;SDS011;2665;53.112;7.358;2023-07-20T12:49:42;1.60;;;0.50;;
5285;SDS011;2665;53.112;7.358;2023-07-20T12:52:10;1.80;;;0.70;;
5285;SDS011;2665;53.112;7.358;2023-07-20T12:54:36;1.57;;;0.60;;
5285;SDS011;2665;53.112;7.358;2023-07-20T12:57:02;2.37;;;0.50;;
5285;SDS011;2665;53.112;7.358;2023-07-20T12:59:28;5.63;;;0.80;;
5285;SDS011;2665;53.112;7.358;2023-07-20T13:01:54;2.40;;;0.60;;
5285;SDS011;2665;53.112;7.358;2023-07-20T13:04:20;2.73;;;0.63;;
5285;SDS011;2665;53.112;7.358;2023-07-20T13:06:45;1.57;;;0.60;;
5285;SDS011;2665;53.112;7.358;2023-07-20T13:09:11;2.00;;;0.60;;
5285;SDS011;2665;53.112;7.358;2023-07-20T13:11:36;1.50;;;0.60;;
5285;SDS011;2665;53.112;7.358;2023-07-20T13:14:02;2.50;;;0.70;;
5285;SDS011;2665;53.112;7.358;2023-07-20T13:16:28;1.47;;;0.60;;
5285;SDS011;2665;53.112;7.358;2023-07-20T13:18:53;1.90;;;0.70;;
5285;SDS011;2665;53.112;7.358;2023-07-20T13:21:19;2.10;;;0.60;;
5285;SDS011;2665;53.112;7.358;2023-07-20T13:23:47;1.67;;;0.90;;
5285;SDS011;2665;53.112;7.358;2023-07-20T13:26:13;1.60;;;0.70;;
5285;SDS011;2665;53.112;7.358;2023-07-20T13:28:40;1.30;;;0.50;;
5285;SDS011;2665;53.112;7.358;2023-07-20T13:31:06;4.13;;;0.90;;
5285;SDS011;2665;53.112;7.358;2023-07-20T13:33:35;2.50;;;0.83;;
5285;SDS011;2665;53.112;7.358;2023-07-20T13:36:00;3.33;;;1.00;;
5285;SDS011;2665;53.112;7.358;2023-07-20T13:38:26;1.80;;;0.63;;
5285;SDS011;2665;53.112;7.358;2023-07-20T13:40:52;2.30;;;0.80;;
5285;SDS011;2665;53.112;7.358;2023-07-20T13:43:18;4.10;;;0.90;;
5285;SDS011;2665;53.112;7.358;2023-07-20T13:45:43;2.43;;;0.77;;
5285;SDS011;2665;53.112;7.358;2023-07-20T13:48:09;4.00;;;1.77;;
5285;SDS011;2665;53.112;7.358;2023-07-20T13:50:34;1.70;;;0.70;;
5285;SDS011;2665;53.112;7.358;2023-07-20T13:53:00;1.57;;;0.77;;
5285;SDS011;2665;53.112;7.358;2023-07-20T13:55:28;2.13;;;0.70;;
5285;SDS011;2665;53.112;7.358;2023-07-20T13:57:53;3.20;;;0.90;;
5285;SDS011;2665;53.112;7.358;2023-07-20T14:00:19;2.07;;;0.87;;
5285;SDS011;2665;53.112;7.358;2023-07-20T14:02:44;2.90;;;0.70;;
5285;SDS011;2665;53.112;7.358;2023-07-20T14:05:10;4.57;;;0.70;;
5285;SDS011;2665;53.112;7.358;2023-07-20T14:07:36;1.90;;;0.63;;
5285;SDS011;2665;53.112;7.358;2023-07-20T14:10:02;3.13;;;0.67;;
5285;SDS011;2665;53.112;7.358;2023-07-20T14:12:28;2.17;;;1.00;;
5285;SDS011;2665;53.112;7.358;2023-07-20T14:14:54;1.70;;;0.73;;
5285;SDS011;2665;53.112;7.358;2023-07-20T14:17:21;2.80;;;0.80;;
5285;SDS011;2665;53.112;7.358;2023-07-20T14:19:46;2.30;;;0.80;;
5285;SDS011;2665;53.112;7.358;2023-07-20T14:22:12;1.70;;;0.80;;
5285;SDS011;2665;53.112;7.358;2023-07-20T14:24:38;3.30;;;1.17;;
5285;SDS011;2665;53.112;7.358;2023-07-20T14:27:03;1.80;;;0.77;;
5285;SDS011;2665;53.112;7.358;2023-07-20T14:29:29;2.03;;;0.80;;
5285;SDS011;2665;53.112;7.358;2023-07-20T14:31:56;1.90;;;0.80;;
5285;SDS011;2665;53.112;7.358;2023-07-20T14:34:22;2.10;;;0.80;;
5285;SDS011;2665;53.112;7.358;2023-07-20T14:36:48;2.33;;;0.80;;
5285;SDS011;2665;53.112;7.358;2023-07-20T14:39:14;3.20;;;0.80;;
5285;SDS011;2665;53.112;7.358;2023-07-20T14:41:40;1.80;;;0.60;;
5285;SDS011;2665;53.112;7.358;2023-07-20T14:44:06;1.70;;;1.00;;
5285;SDS011;2665;53.112;7.358;2023-07-20T14:46:31;1.70;;;0.63;;
5285;SDS011;2665;53.112;7.358;2023-07-20T14:48:57;1.50;;;0.60;;
5285;SDS011;2665;53.112;7.358;2023-07-20T14:51:23;1.50;;;0.50;;
5285;SDS011;2665;53.112;7.358;2023-07-20T14:53:49;3.00;;;0.90;;
5285;SDS011;2665;53.112;7.358;2023-07-20T14:56:14;1.90;;;0.80;;
5285;SDS011;2665;53.112;7.358;2023-07-20T14:58:40;1.43;;;0.60;;
5285;SDS011;2665;53.112;7.358;2023-07-20T15:01:06;2.20;;;0.70;;
5285;SDS011;2665;53.112;7.358;2023-07-20T15:03:31;1.60;;;0.77;;
5285;SDS011;2665;53.112;7.358;2023-07-20T15:05:57;3.00;;;0.70;;
5285;SDS011;2665;53.112;7.358;2023-07-20T15:08:23;1.50;;;0.60;;
5285;SDS011;2665;53.112;7.358;2023-07-20T15:10:48;2.47;;;0.70;;
5285;SDS011;2665;53.112;7.358;2023-07-20T15:13:14;4.40;;;0.70;;
5285;SDS011;2665;53.112;7.358;2023-07-20T15:15:40;2.83;;;1.00;;
5285;SDS011;2665;53.112;7.358;2023-07-20T15:18:06;2.37;;;0.70;;
5285;SDS011;2665;53.112;7.358;2023-07-20T15:20:32;2.93;;;0.83;;
5285;SDS011;2665;53.112;7.358;2023-07-20T15:22:58;2.03;;;0.70;;
5285;SDS011;2665;53.112;7.358;2023-07-20T15:25:24;1.77;;;0.80;;
5285;SDS011;2665;53.112;7.358;2023-07-20T15:27:49;2.90;;;0.90;;
5285;SDS011;2665;53.112;7.358;2023-07-20T15:30:15;3.60;;;0.60;;
5285;SDS011;2665;53.112;7.358;2023-07-20T15:32:41;1.67;;;0.60;;
5285;SDS011;2665;53.112;7.358;2023-07-20T15:35:08;1.90;;;0.70;;
5285;SDS011;2665;53.112;7.358;2023-07-20T15:37:35;2.80;;;0.87;;
5285;SDS011;2665;53.112;7.358;2023-07-20T15:40:01;1.53;;;0.60;;
5285;SDS011;2665;53.112;7.358;2023-07-20T15:42:29;2.27;;;0.50;;
5285;SDS011;2665;53.112;7.358;2023-07-20T15:44:55;2.43;;;0.60;;